createdAt,value
2023-05-01T03:58:44.917Z,20.68
2023-05-01T03:59:44.870Z,20.71
2023-05-01T04:00:44.885Z,20.71
2023-05-01T04:01:44.885Z,20.74
2023-05-01T04:02:44.930Z,20.72
2023-05-01T04:03:44.929Z,20.76
2023-05-01T04:04:44.822Z,20.68
2023-05-01T04:05:44.805Z,20.71
2023-05-01T04:06:44.998Z,20.75
2023-05-01T04:07:44.826Z,20.76
2023-05-01T04:08:44.795Z,20.78
2023-05-01T04:09:44.808Z,20.78
2023-05-01T04:10:44.785Z,20.86
2023-05-01T04:11:44.778Z,20.81
2023-05-01T04:12:44.782Z,20.91
2023-05-01T04:13:44.757Z,20.82
2023-05-01T04:14:44.769Z,20.94
2023-05-01T04:15:44.786Z,20.88
2023-05-01T04:16:44.760Z,20.91
2023-05-01T04:17:44.787Z,20.91
2023-05-01T04:18:44.768Z,20.98
2023-05-01T04:19:44.765Z,20.96
2023-05-01T04:20:44.739Z,20.98
2023-05-01T04:21:44.735Z,21.04
2023-05-01T04:22:44.724Z,21.06
2023-05-01T04:23:44.716Z,21.03
2023-05-01T04:24:44.734Z,21.00
2023-05-01T04:25:44.704Z,21.03
2023-05-01T04:26:44.712Z,21.12
2023-05-01T04:27:44.733Z,21.06
2023-05-01T04:28:44.714Z,21.04
2023-05-01T04:29:44.690Z,21.06
2023-05-01T04:30:44.703Z,21.16
2023-05-01T04:31:44.741Z,21.12
2023-05-01T04:32:44.774Z,21.11
2023-05-01T04:33:44.697Z,21.22
2023-05-01T04:34:44.665Z,21.19
2023-05-01T04:35:44.664Z,21.18
2023-05-01T04:36:44.678Z,21.18
2023-05-01T04:37:44.682Z,21.31
2023-05-01T04:38:44.657Z,21.28
2023-05-01T04:39:44.667Z,21.27
2023-05-01T04:40:44.657Z,21.28
2023-05-01T04:41:44.640Z,21.25
2023-05-01T04:42:44.675Z,21.31
2023-05-01T04:43:44.666Z,21.31
2023-05-01T04:44:44.657Z,21.31
2023-05-01T04:45:44.667Z,21.34
2023-05-01T04:46:44.683Z,21.37
2023-05-01T04:47:44.650Z,21.33
2023-05-01T04:48:44.623Z,21.38
2023-05-01T04:49:44.662Z,21.36
2023-05-01T04:50:44.625Z,21.40
2023-05-01T04:51:44.615Z,21.41
2023-05-01T04:52:44.647Z,21.41
2023-05-01T04:53:44.604Z,21.46
2023-05-01T04:54:44.611Z,21.46
2023-05-01T04:55:44.645Z,21.49
2023-05-01T04:56:44.616Z,21.46
2023-05-01T04:57:44.617Z,21.45
2023-05-01T04:58:44.622Z,21.53
2023-05-01T04:59:44.591Z,21.51
2023-05-01T05:00:44.621Z,21.52
2023-05-01T05:01:44.577Z,21.59
2023-05-01T05:02:44.699Z,21.53
2023-05-01T05:03:46.532Z,21.59
2023-05-01T05:04:44.568Z,21.56
2023-05-01T05:05:44.589Z,21.61
2023-05-01T05:06:44.605Z,21.64
2023-05-01T05:07:44.580Z,21.70
2023-05-01T05:08:44.586Z,21.64
2023-05-01T05:09:44.559Z,21.67
2023-05-01T05:10:44.552Z,21.71
2023-05-01T05:11:44.545Z,21.76
2023-05-01T05:12:44.550Z,21.71
2023-05-01T05:13:44.552Z,21.68
2023-05-01T05:14:44.552Z,21.80
2023-05-01T05:15:44.528Z,21.82
2023-05-01T05:16:44.559Z,21.83
2023-05-01T05:17:44.624Z,21.78
2023-05-01T05:18:44.583Z,21.76
2023-05-01T05:19:44.516Z,21.85
2023-05-01T05:20:44.548Z,21.80
2023-05-01T05:21:44.514Z,21.90
2023-05-01T05:22:44.535Z,21.96
2023-05-01T05:23:44.502Z,21.86
2023-05-01T05:24:44.499Z,21.90
2023-05-01T05:25:44.500Z,21.96
2023-05-01T05:26:44.488Z,21.92
2023-05-01T05:27:44.514Z,21.94
2023-05-01T05:28:44.496Z,21.96
2023-05-01T05:29:44.490Z,21.97
2023-05-01T05:30:44.510Z,22.05
2023-05-01T05:31:44.496Z,21.96
2023-05-01T05:32:44.572Z,22.04
2023-05-01T05:33:44.491Z,22.07
2023-05-01T05:34:44.494Z,22.07
2023-05-01T05:35:44.467Z,22.05
2023-05-01T05:36:44.469Z,22.11
2023-05-01T05:37:46.094Z,22.05
2023-05-01T05:38:44.479Z,22.11
2023-05-01T05:39:44.463Z,22.07
2023-05-01T05:40:44.442Z,22.14
2023-05-01T05:41:44.473Z,22.16
2023-05-01T05:42:44.454Z,22.14
2023-05-01T05:43:44.453Z,22.12
2023-05-01T05:44:44.441Z,22.09
2023-05-01T05:45:44.480Z,22.22
2023-05-01T05:46:44.435Z,22.27
2023-05-01T05:47:44.475Z,22.24
2023-05-01T05:48:44.436Z,22.27
2023-05-01T05:49:44.429Z,22.26
2023-05-01T05:50:44.451Z,22.22
2023-05-01T05:51:44.439Z,22.33
2023-05-01T05:52:44.416Z,22.34
2023-05-01T05:53:44.411Z,22.38
2023-05-01T05:54:44.419Z,22.41
2023-05-01T05:55:44.414Z,22.39
2023-05-01T05:56:44.420Z,22.48
2023-05-01T05:57:44.402Z,22.45
2023-05-01T05:58:44.485Z,22.45
2023-05-01T05:59:44.414Z,22.45
2023-05-01T06:00:44.402Z,22.48
2023-05-01T06:01:44.412Z,22.49
2023-05-01T06:02:44.493Z,22.63
2023-05-01T06:03:44.440Z,22.60
2023-05-01T06:04:44.382Z,22.66
2023-05-01T06:05:44.460Z,22.61
2023-05-01T06:06:44.410Z,22.60
2023-05-01T06:07:44.405Z,22.66
2023-05-01T06:08:44.376Z,22.70
2023-05-01T06:09:44.366Z,22.70
2023-05-01T06:10:44.404Z,22.79
2023-05-01T06:11:44.379Z,22.78
2023-05-01T06:12:48.604Z,22.71
2023-05-01T06:13:44.350Z,22.78
2023-05-01T06:14:44.363Z,22.85
2023-05-01T06:15:44.507Z,22.88
2023-05-01T06:16:44.351Z,22.89
2023-05-01T06:17:44.401Z,22.89
2023-05-01T06:18:45.711Z,23.06
2023-05-01T06:19:44.347Z,23.00
2023-05-01T06:20:44.368Z,23.03
2023-05-01T06:21:44.345Z,23.12
2023-05-01T06:22:44.485Z,23.06
2023-05-01T06:23:44.356Z,23.06
2023-05-01T06:24:44.342Z,23.12
2023-05-01T06:25:44.327Z,23.04
2023-05-01T06:26:44.325Z,23.10
2023-05-01T06:27:44.341Z,23.09
2023-05-01T06:28:44.350Z,23.06
2023-05-01T06:29:44.339Z,23.15
2023-05-01T06:30:44.313Z,23.16
2023-05-01T06:31:44.353Z,23.22
2023-05-01T06:32:44.343Z,23.25
2023-05-01T06:33:44.325Z,23.21
2023-05-01T06:34:44.337Z,23.28
2023-05-01T06:35:44.306Z,23.24
2023-05-01T06:36:44.340Z,23.37
2023-05-01T06:37:44.295Z,23.37
2023-05-01T06:38:44.306Z,23.41
2023-05-01T06:39:44.306Z,23.38
2023-05-01T06:40:44.311Z,23.37
2023-05-01T06:41:44.319Z,23.38
2023-05-01T06:42:44.285Z,23.48
2023-05-01T06:43:44.308Z,23.44
2023-05-01T06:44:44.291Z,23.42
2023-05-01T06:45:44.318Z,23.50
2023-05-01T06:46:44.341Z,23.48
2023-05-01T06:47:44.340Z,23.48
2023-05-01T06:48:44.304Z,23.59
2023-05-01T06:49:44.271Z,23.59
2023-05-01T06:50:44.283Z,23.64
2023-05-01T06:51:44.277Z,23.70
2023-05-01T06:52:44.305Z,23.67
2023-05-01T06:53:44.266Z,23.78
2023-05-01T06:54:44.292Z,23.85
2023-05-01T06:55:44.272Z,23.78
2023-05-01T06:56:44.259Z,23.93
2023-05-01T06:57:44.273Z,23.96
2023-05-01T06:58:44.277Z,23.93
2023-05-01T06:59:44.265Z,24.07
2023-05-01T07:00:44.290Z,24.11
2023-05-01T07:01:44.266Z,24.09
2023-05-01T07:02:44.354Z,24.09
2023-05-01T07:03:44.296Z,24.22
2023-05-01T07:04:44.323Z,24.19
2023-05-01T07:05:44.257Z,24.24
2023-05-01T07:06:44.305Z,24.30
2023-05-01T07:07:50.474Z,24.24
2023-05-01T07:08:44.269Z,24.27
2023-05-01T07:09:44.276Z,24.34
2023-05-01T07:10:44.273Z,24.32
2023-05-01T07:11:44.243Z,24.30
2023-05-01T07:12:44.264Z,24.36
2023-05-01T07:13:44.244Z,24.37
2023-05-01T07:14:44.263Z,24.44
2023-05-01T07:15:44.233Z,24.45
2023-05-01T07:16:44.305Z,24.48
2023-05-01T07:17:44.346Z,24.48
2023-05-01T07:18:44.232Z,24.45
2023-05-01T07:19:44.231Z,24.63
2023-05-01T07:20:44.285Z,24.45
2023-05-01T07:21:44.253Z,24.49
2023-05-01T07:22:44.232Z,24.58
2023-05-01T07:23:44.262Z,24.66
2023-05-01T07:24:44.239Z,24.61
2023-05-01T07:25:44.254Z,24.61
2023-05-01T07:26:44.266Z,24.61
2023-05-01T07:27:44.226Z,24.56
2023-05-01T07:28:44.242Z,24.64
2023-05-01T07:29:44.229Z,24.63
2023-05-01T07:30:44.251Z,24.56
2023-05-01T07:31:44.284Z,24.64
2023-05-01T07:32:44.297Z,24.59
2023-05-01T07:33:44.227Z,24.58
2023-05-01T07:34:44.217Z,24.63
2023-05-01T07:35:44.236Z,24.64
2023-05-01T07:36:44.237Z,24.64
2023-05-01T07:37:44.227Z,24.61
2023-05-01T07:38:44.240Z,24.64
2023-05-01T07:39:44.209Z,24.56
2023-05-01T07:40:44.223Z,24.56
2023-05-01T07:41:44.261Z,24.61
2023-05-01T07:42:44.235Z,24.69
2023-05-01T07:43:44.206Z,24.58
2023-05-01T07:44:44.220Z,24.61
2023-05-01T07:45:44.284Z,24.59
2023-05-01T07:46:44.205Z,24.61
2023-05-01T07:47:44.246Z,24.61
2023-05-01T07:48:44.197Z,24.59
2023-05-01T07:49:44.208Z,24.64
2023-05-01T07:50:44.198Z,24.63
2023-05-01T07:51:44.210Z,24.69
2023-05-01T07:52:44.217Z,24.66
2023-05-01T07:53:44.198Z,24.70
2023-05-01T07:54:44.186Z,24.66
2023-05-01T07:55:44.223Z,24.67
2023-05-01T07:56:44.191Z,24.75
2023-05-01T07:57:44.198Z,24.69
2023-05-01T07:58:44.223Z,24.77
2023-05-01T07:59:44.196Z,24.75
2023-05-01T08:00:44.184Z,24.78
2023-05-01T08:01:44.183Z,24.75
2023-05-01T08:02:44.260Z,24.83
2023-05-01T08:03:44.279Z,24.83
2023-05-01T08:04:44.309Z,24.92
2023-05-01T08:05:44.211Z,24.87
2023-05-01T08:06:44.250Z,24.97
2023-05-01T08:07:44.191Z,24.97
2023-05-01T08:08:44.189Z,24.94
2023-05-01T08:09:44.281Z,25.02
2023-05-01T08:12:16.757Z,24.97
2023-05-01T08:13:16.732Z,25.08
2023-05-01T08:14:16.774Z,25.05
2023-05-01T08:15:16.726Z,25.00
2023-05-01T08:16:16.767Z,25.04
2023-05-01T08:17:16.758Z,25.04
2023-05-01T08:18:16.731Z,25.07
2023-05-01T08:19:16.742Z,25.07
2023-05-01T08:20:16.718Z,25.09
2023-05-01T08:21:16.735Z,25.15
2023-05-01T08:22:16.740Z,25.12
2023-05-01T08:23:16.772Z,25.08
2023-05-01T08:24:16.736Z,25.17
2023-05-01T08:25:16.764Z,25.17
2023-05-01T08:26:16.740Z,25.17
2023-05-01T08:27:16.720Z,25.20
2023-05-01T08:28:16.722Z,25.17
2023-05-01T08:29:16.727Z,25.15
2023-05-01T08:30:16.767Z,25.17
2023-05-01T08:31:16.803Z,25.19
2023-05-01T08:32:16.742Z,25.20
2023-05-01T08:33:16.742Z,25.20
2023-05-01T08:34:16.724Z,25.27
2023-05-01T08:35:16.737Z,25.22
2023-05-01T08:36:16.721Z,25.22
2023-05-01T08:37:16.725Z,25.23
2023-05-01T08:38:16.747Z,25.24
2023-05-01T08:39:16.709Z,25.23
2023-05-01T08:40:16.717Z,25.24
2023-05-01T08:41:16.715Z,25.32
2023-05-01T08:42:16.752Z,25.29
2023-05-01T08:43:16.747Z,25.27
2023-05-01T08:44:16.744Z,25.32
2023-05-01T08:45:16.730Z,25.27
2023-05-01T08:46:16.830Z,25.26
2023-05-01T08:47:16.743Z,25.34
2023-05-01T08:48:16.711Z,25.30
2023-05-01T08:49:16.709Z,25.34
2023-05-01T08:50:16.732Z,25.33
2023-05-01T08:51:16.751Z,25.30
2023-05-01T08:52:16.733Z,25.39
2023-05-01T08:53:16.711Z,25.33
2023-05-01T08:54:16.700Z,25.37
2023-05-01T08:55:16.704Z,25.34
2023-05-01T08:56:16.756Z,25.32
2023-05-01T08:57:16.731Z,25.45
2023-05-01T08:58:16.709Z,25.47
2023-05-01T08:59:16.709Z,25.45
2023-05-01T09:00:16.717Z,25.44
2023-05-01T09:01:16.857Z,25.60
2023-05-01T09:02:16.815Z,25.60
2023-05-01T09:03:16.896Z,25.62
2023-05-01T09:04:16.796Z,25.62
2023-05-01T09:05:16.688Z,25.62
2023-05-01T09:06:16.803Z,25.60
2023-05-01T09:07:16.712Z,25.69
2023-05-01T09:08:16.712Z,25.67
2023-05-01T09:09:16.725Z,25.78
2023-05-01T09:10:16.690Z,25.78
2023-05-01T09:11:16.736Z,25.75
2023-05-01T09:12:16.707Z,25.79
2023-05-01T09:13:16.726Z,25.81
2023-05-01T09:14:16.728Z,25.75
2023-05-01T09:15:16.709Z,25.84
2023-05-01T09:16:16.745Z,25.76
2023-05-01T09:17:16.691Z,25.82
2023-05-01T09:18:16.761Z,25.84
2023-05-01T09:19:16.708Z,25.81
2023-05-01T09:20:16.719Z,25.84
2023-05-01T09:21:16.734Z,25.88
2023-05-01T09:22:16.710Z,25.86
2023-05-01T09:23:16.718Z,25.88
2023-05-01T09:24:16.721Z,25.89
2023-05-01T09:25:16.758Z,25.91
2023-05-01T09:26:16.700Z,25.93
2023-05-01T09:27:16.698Z,26.00
2023-05-01T09:28:16.704Z,25.99
2023-05-01T09:29:16.715Z,26.00
2023-05-01T09:30:16.739Z,25.96
2023-05-01T09:31:16.784Z,26.01
2023-05-01T09:32:16.782Z,25.99
2023-05-01T09:33:16.753Z,25.99
2023-05-01T09:34:16.745Z,26.09
2023-05-01T09:35:16.716Z,26.09
2023-05-01T09:36:16.719Z,26.11
2023-05-01T09:37:16.739Z,26.15
2023-05-01T09:38:16.751Z,26.11
2023-05-01T09:39:16.714Z,26.11
2023-05-01T09:40:16.706Z,26.06
2023-05-01T09:41:16.696Z,26.23
2023-05-01T09:42:16.701Z,26.23
2023-05-01T09:43:16.729Z,26.24
2023-05-01T09:44:16.711Z,26.24
2023-05-01T09:45:16.721Z,26.26
2023-05-01T09:46:16.784Z,26.22
2023-05-01T09:47:16.755Z,26.23
2023-05-01T09:48:16.713Z,26.35
2023-05-01T09:49:16.728Z,26.32
2023-05-01T09:50:16.729Z,26.34
2023-05-01T09:51:16.729Z,26.37
2023-05-01T09:52:16.744Z,26.38
2023-05-01T09:53:16.712Z,26.41
2023-05-01T09:54:16.718Z,26.34
2023-05-01T09:55:16.757Z,26.31
2023-05-01T09:56:16.711Z,26.44
2023-05-01T09:57:16.727Z,26.44
2023-05-01T09:58:16.704Z,26.42
2023-05-01T09:59:16.727Z,26.47
2023-05-01T10:00:16.734Z,26.52
2023-05-01T10:01:16.876Z,26.54
2023-05-01T10:13:08.659Z,26.68
2023-05-01T10:14:08.661Z,26.72
2023-05-01T10:15:23.396Z,26.74
2023-05-01T10:16:08.648Z,26.74
2023-05-01T10:17:08.727Z,26.74
2023-05-01T10:18:08.651Z,26.81
2023-05-01T10:19:08.621Z,26.79
2023-05-01T10:20:08.629Z,26.81
2023-05-01T10:21:08.651Z,26.91
2023-05-01T10:22:08.632Z,26.82
2023-05-01T10:23:08.651Z,26.94
2023-05-01T10:24:08.656Z,26.87
2023-05-01T10:25:08.617Z,27.00
2023-05-01T10:26:08.621Z,26.93
2023-05-01T10:27:08.652Z,27.01
2023-05-01T10:28:08.653Z,26.99
2023-05-01T10:29:08.661Z,26.97
2023-05-01T10:30:08.629Z,27.11
2023-05-01T10:31:08.672Z,27.12
2023-05-01T10:32:08.636Z,27.13
2023-05-01T10:33:08.661Z,27.21
2023-05-01T10:34:08.656Z,27.23
2023-05-01T10:35:08.652Z,27.23
2023-05-01T10:36:08.668Z,27.23
2023-05-01T10:37:08.664Z,27.31
2023-05-01T10:38:08.643Z,27.33
2023-05-01T10:39:08.653Z,27.34
2023-05-01T10:40:08.663Z,27.42
2023-05-01T10:41:08.670Z,27.45
2023-05-01T10:42:08.761Z,27.48
2023-05-01T10:43:08.645Z,27.46
2023-05-01T10:44:08.659Z,27.55
2023-05-01T10:45:08.688Z,27.46
2023-05-01T10:46:08.772Z,27.53
2023-05-01T10:47:08.650Z,27.68
2023-05-01T10:48:08.750Z,27.64
2023-05-01T10:49:08.640Z,27.71
2023-05-01T10:50:08.695Z,27.75
2023-05-01T10:51:08.656Z,27.68
2023-05-01T10:52:08.647Z,27.84
2023-05-01T10:53:08.738Z,27.84
2023-05-01T10:54:08.653Z,27.94
2023-05-01T10:55:08.668Z,28.02
2023-05-01T10:56:08.704Z,27.99
2023-05-01T10:57:08.672Z,27.99
2023-05-01T10:58:08.679Z,28.12
2023-05-01T10:59:08.669Z,28.17
2023-05-01T11:00:08.691Z,28.24
2023-05-01T11:01:08.708Z,28.38
2023-05-01T11:02:08.721Z,28.26
2023-05-01T11:03:08.766Z,28.38
2023-05-01T11:04:08.684Z,28.39
2023-05-01T11:05:08.717Z,28.45
2023-05-01T11:06:09.077Z,28.49
2023-05-01T11:07:08.880Z,28.63
2023-05-01T11:08:08.730Z,28.63
2023-05-01T11:09:08.718Z,28.70
2023-05-01T11:10:08.701Z,28.73
2023-05-01T11:11:08.744Z,28.82
2023-05-01T11:12:08.711Z,28.85
2023-05-01T11:13:08.700Z,28.98
2023-05-01T11:14:08.752Z,28.97
2023-05-01T11:15:08.809Z,29.03
2023-05-01T11:16:08.735Z,29.06
2023-05-01T11:17:08.748Z,29.17
2023-05-01T11:18:08.779Z,29.30
2023-05-01T11:19:08.751Z,29.35
2023-05-01T11:20:08.759Z,29.45
2023-05-01T11:21:08.727Z,29.52
2023-05-01T11:22:08.751Z,29.61
2023-05-01T11:23:08.735Z,29.58
2023-05-01T11:24:08.757Z,29.66
2023-05-01T11:25:08.760Z,29.79
2023-05-01T11:26:08.752Z,29.92
2023-05-01T11:27:08.765Z,30.00
2023-05-01T11:28:08.772Z,30.10
2023-05-01T11:29:08.781Z,30.13
2023-05-01T11:30:08.770Z,30.24
2023-05-01T11:31:08.777Z,30.24
2023-05-01T11:32:08.910Z,30.31
2023-05-01T11:33:10.759Z,30.32
2023-05-01T11:34:08.833Z,30.44
2023-05-01T11:35:08.799Z,30.40
2023-05-01T11:36:08.800Z,30.51
2023-05-01T11:37:08.778Z,30.59
2023-05-01T11:38:08.789Z,30.59
2023-05-01T11:39:08.808Z,30.59
2023-05-01T11:40:08.796Z,30.63
2023-05-01T11:41:08.807Z,30.56
2023-05-01T11:42:08.984Z,30.67
2023-05-01T11:43:08.813Z,30.67
2023-05-01T11:44:08.822Z,30.77
2023-05-01T11:45:08.826Z,30.84
2023-05-01T11:46:08.855Z,30.84
2023-05-01T11:47:08.860Z,30.86
2023-05-01T11:48:08.873Z,30.88
2023-05-01T11:49:08.866Z,31.04
2023-05-01T11:50:08.860Z,31.06
2023-05-01T11:51:08.868Z,31.21
2023-05-01T11:52:08.853Z,31.33
2023-05-01T11:53:08.883Z,31.38
2023-05-01T11:54:08.860Z,31.44
2023-05-01T11:55:08.865Z,31.41
2023-05-01T11:56:19.532Z,31.36
2023-05-01T11:57:08.883Z,31.40
2023-05-01T11:58:08.884Z,31.41
2023-05-01T11:59:08.896Z,31.50
2023-05-01T12:00:08.911Z,31.55
2023-05-01T12:01:08.879Z,31.68
2023-05-01T12:02:08.909Z,31.72
2023-05-01T12:03:09.194Z,31.87
2023-05-01T12:04:08.979Z,31.93
2023-05-01T12:05:08.955Z,31.95
2023-05-01T12:06:08.958Z,32.08
2023-05-01T12:07:08.914Z,32.16
2023-05-01T12:08:08.939Z,32.15
2023-05-01T12:09:08.938Z,32.31
2023-05-01T12:10:08.938Z,32.34
2023-05-01T12:11:08.954Z,32.43
2023-05-01T12:12:08.947Z,32.43
2023-05-01T12:13:09.030Z,32.45
2023-05-01T12:14:08.966Z,32.43
2023-05-01T12:15:08.973Z,32.53
2023-05-01T12:16:08.980Z,32.67
2023-05-01T12:17:08.999Z,32.69
2023-05-01T12:18:09.074Z,32.79
2023-05-01T12:19:08.991Z,32.71
2023-05-01T12:20:09.064Z,32.84
2023-05-01T12:21:09.025Z,32.90
2023-05-01T12:22:09.061Z,33.05
2023-05-01T12:23:09.000Z,33.05
2023-05-01T12:24:08.996Z,33.11
2023-05-01T12:25:09.003Z,33.21
2023-05-01T12:26:09.009Z,33.31
2023-05-01T12:27:09.056Z,33.26
2023-05-01T12:28:09.054Z,33.36
2023-05-01T12:29:09.037Z,33.36
2023-05-01T12:30:09.064Z,33.23
2023-05-01T12:31:09.110Z,33.09
2023-05-01T12:32:09.193Z,33.03
2023-05-01T12:33:09.113Z,32.87
2023-05-01T12:34:09.058Z,32.80
2023-05-01T12:35:09.119Z,32.75
2023-05-01T12:36:09.069Z,32.74
2023-05-01T12:37:09.099Z,32.75
2023-05-01T12:38:09.107Z,32.79
2023-05-01T12:39:09.083Z,32.72
2023-05-01T12:40:09.124Z,32.69
2023-05-01T12:41:09.213Z,32.71
2023-05-01T12:43:43.774Z,32.94
2023-05-01T12:44:41.620Z,33.12
2023-05-01T12:45:41.646Z,33.32
2023-05-01T12:46:41.650Z,33.46
2023-05-01T12:47:41.692Z,33.53
2023-05-01T12:48:41.640Z,33.52
2023-05-01T12:49:41.672Z,33.46
2023-05-01T12:50:41.672Z,33.29
2023-05-01T12:51:41.656Z,33.09
2023-05-01T12:52:41.680Z,32.99
2023-05-01T12:53:41.670Z,32.84
2023-05-01T12:54:41.730Z,32.75
2023-05-01T12:55:41.682Z,32.79
2023-05-01T12:56:41.699Z,32.54
2023-05-01T12:57:41.702Z,32.43
2023-05-01T12:58:41.719Z,32.24
2023-05-01T12:59:41.698Z,32.13
2023-05-01T13:00:41.723Z,32.03
2023-05-01T13:01:41.746Z,32.05
2023-05-01T13:02:41.745Z,31.90
2023-05-01T13:03:41.758Z,31.80
2023-05-01T13:04:41.728Z,31.77
2023-05-01T13:05:41.766Z,31.55
2023-05-01T13:06:41.753Z,31.49
2023-05-01T13:07:41.731Z,31.52
2023-05-01T13:08:41.735Z,31.31
2023-05-01T13:09:41.733Z,31.30
2023-05-01T13:10:41.746Z,31.26
2023-05-01T13:11:41.759Z,31.13
2023-05-01T13:12:41.749Z,31.04
2023-05-01T13:13:41.725Z,30.86
2023-05-01T13:14:41.734Z,30.84
2023-05-01T13:15:41.742Z,30.89
2023-05-01T13:16:41.850Z,30.93
2023-05-01T13:17:41.806Z,30.88
2023-05-01T13:18:42.448Z,30.93
2023-05-01T13:19:41.752Z,31.06
2023-05-01T13:20:41.770Z,31.16
2023-05-01T13:21:41.783Z,31.22
2023-05-01T13:22:41.766Z,31.13
2023-05-01T13:23:41.767Z,31.07
2023-05-01T13:24:41.795Z,30.91
2023-05-01T13:25:41.802Z,30.91
2023-05-01T13:26:41.806Z,31.01
2023-05-01T13:27:41.805Z,31.19
2023-05-01T13:28:41.801Z,31.31
2023-05-01T13:29:41.826Z,31.53
2023-05-01T13:30:41.811Z,31.74
2023-05-01T13:31:41.924Z,31.93
2023-05-01T13:32:41.860Z,32.10
2023-05-01T13:33:41.797Z,32.34
2023-05-01T13:34:41.796Z,32.61
2023-05-01T13:35:41.815Z,32.69
2023-05-01T13:36:41.802Z,32.68
2023-05-01T13:37:41.817Z,32.81
2023-05-01T13:38:41.818Z,32.98
2023-05-01T13:39:41.836Z,32.99
2023-05-01T13:40:41.831Z,32.98
2023-05-01T13:41:41.813Z,32.72
2023-05-01T13:42:41.836Z,32.61
2023-05-01T13:43:41.832Z,32.50
2023-05-01T13:44:41.834Z,32.37
2023-05-01T13:45:41.883Z,32.25
2023-05-01T13:46:41.835Z,32.20
2023-05-01T13:47:41.908Z,32.08
2023-05-01T13:48:41.845Z,32.31
2023-05-01T13:49:41.868Z,32.65
2023-05-01T13:50:41.857Z,32.99
2023-05-01T13:51:41.857Z,33.17
2023-05-01T13:52:41.874Z,33.40
2023-05-01T13:53:41.877Z,33.65
2023-05-01T13:54:41.897Z,33.83
2023-05-01T13:55:41.878Z,34.06
2023-05-01T13:56:41.884Z,34.10
2023-05-01T13:57:41.898Z,33.83
2023-05-01T13:58:41.913Z,33.69
2023-05-01T13:59:41.901Z,33.56
2023-05-01T14:00:41.910Z,33.41
2023-05-01T14:01:41.945Z,33.20
2023-05-01T14:02:42.039Z,33.11
2023-05-01T14:03:42.051Z,32.98
2023-05-01T14:04:41.941Z,32.87
2023-05-01T14:05:41.939Z,32.74
2023-05-01T14:06:41.957Z,32.57
2023-05-01T14:07:41.954Z,32.43
2023-05-01T14:08:41.938Z,32.25
2023-05-01T14:09:41.981Z,32.13
2023-05-01T14:10:41.955Z,32.00
2023-05-01T14:11:41.956Z,31.94
2023-05-01T14:12:42.023Z,31.77
2023-05-01T14:13:41.950Z,31.53
2023-05-01T14:14:41.967Z,31.50
2023-05-01T14:15:41.954Z,31.37
2023-05-01T14:16:42.020Z,31.25
2023-05-01T14:17:42.000Z,31.18
2023-05-01T14:18:41.980Z,31.06
2023-05-01T14:19:41.984Z,30.93
2023-05-01T14:20:41.990Z,30.84
2023-05-01T14:21:41.982Z,30.89
2023-05-01T14:22:42.000Z,30.70
2023-05-01T14:23:42.023Z,30.64
2023-05-01T14:24:42.001Z,30.56
2023-05-01T14:25:42.019Z,30.51
2023-05-01T14:26:42.000Z,30.47
2023-05-01T14:27:42.013Z,30.35
2023-05-01T14:28:42.120Z,30.21
2023-05-01T14:29:42.024Z,30.16
2023-05-01T14:30:42.108Z,30.14
2023-05-01T14:31:42.019Z,30.09
2023-05-01T14:32:42.167Z,29.95
2023-05-01T14:33:42.019Z,29.87
2023-05-01T14:34:42.034Z,29.79
2023-05-01T14:35:42.028Z,29.79
2023-05-01T14:36:42.004Z,29.73
2023-05-01T14:37:42.051Z,29.65
2023-05-01T14:38:42.006Z,29.76
2023-05-01T14:39:42.034Z,30.00
2023-05-01T14:40:42.050Z,30.13
2023-05-01T14:41:42.027Z,30.32
2023-05-01T14:42:42.030Z,30.31
2023-05-01T14:43:42.053Z,30.45
2023-05-01T14:44:42.082Z,30.39
2023-05-01T14:45:42.067Z,30.18
2023-05-01T14:46:42.067Z,30.19
2023-05-01T14:47:42.114Z,30.14
2023-05-01T14:48:42.072Z,30.13
2023-05-01T14:49:42.052Z,30.03
2023-05-01T14:50:42.071Z,30.02
2023-05-01T14:51:42.071Z,29.98
2023-05-01T14:52:42.076Z,30.02
2023-05-01T14:53:42.068Z,30.00
2023-05-01T14:54:42.068Z,29.87
2023-05-01T14:55:42.086Z,29.87
2023-05-01T14:56:42.089Z,29.84
2023-05-01T14:57:42.093Z,29.66
2023-05-01T14:58:42.095Z,29.58
2023-05-01T14:59:42.075Z,29.58
2023-05-01T15:00:42.117Z,29.52
2023-05-01T15:01:42.216Z,29.40
2023-05-01T15:02:42.215Z,29.28
2023-05-01T15:03:42.133Z,29.23
2023-05-01T15:04:42.081Z,29.11
2023-05-01T15:05:42.086Z,29.08
2023-05-01T15:06:42.203Z,28.95
2023-05-01T15:07:42.098Z,29.01
2023-05-01T15:08:42.102Z,28.85
2023-05-01T15:09:42.093Z,28.83
2023-05-01T15:10:42.128Z,28.75
2023-05-01T15:11:42.099Z,28.65
2023-05-01T15:12:42.112Z,28.58
2023-05-01T15:13:42.114Z,28.46
2023-05-01T15:14:42.108Z,28.43
2023-05-01T15:15:42.124Z,28.39
2023-05-01T15:16:42.196Z,28.28
2023-05-01T15:17:42.190Z,28.27
2023-05-01T15:18:42.104Z,28.18
2023-05-01T15:19:42.132Z,28.06
2023-05-01T15:20:42.112Z,28.01
2023-05-01T15:21:42.137Z,28.05
2023-05-01T15:22:42.133Z,27.98
2023-05-01T15:23:42.138Z,27.90
2023-05-01T15:24:42.113Z,27.87
2023-05-01T15:25:42.129Z,27.79
2023-05-01T15:26:42.128Z,27.75
2023-05-01T15:27:43.421Z,27.69
2023-05-01T15:28:42.156Z,27.66
2023-05-01T15:29:42.142Z,27.62
2023-05-01T15:30:42.131Z,27.49
2023-05-01T15:31:42.149Z,27.53
2023-05-01T15:32:42.264Z,27.45
2023-05-01T15:33:42.189Z,27.41
2023-05-01T15:34:42.131Z,27.42
2023-05-01T15:35:42.117Z,27.28
2023-05-01T15:36:42.116Z,27.27
2023-05-01T15:37:42.122Z,27.33
2023-05-01T15:38:42.139Z,27.23
2023-05-01T15:39:42.122Z,27.21
2023-05-01T15:40:42.117Z,27.19
2023-05-01T15:41:42.130Z,27.04
2023-05-01T15:42:42.130Z,27.06
2023-05-01T15:43:42.117Z,27.04
2023-05-01T15:44:42.157Z,26.97
2023-05-01T15:45:42.260Z,26.94
2023-05-01T15:46:42.253Z,26.99
2023-05-01T15:47:42.184Z,26.86
2023-05-01T15:48:42.161Z,26.84
2023-05-01T15:49:42.141Z,26.86
2023-05-01T15:50:42.139Z,26.87
2023-05-01T15:51:42.162Z,26.89
2023-05-01T15:52:42.135Z,26.87
2023-05-01T15:53:42.136Z,26.87
2023-05-01T15:54:42.127Z,26.81
2023-05-01T15:55:42.114Z,26.78
2023-05-01T15:56:42.115Z,26.78
2023-05-01T15:57:42.129Z,26.78
2023-05-01T15:58:42.136Z,26.81
2023-05-01T15:59:42.133Z,26.75
2023-05-01T16:00:42.146Z,26.74
2023-05-01T16:12:18.161Z,26.27
2023-05-01T16:13:18.134Z,26.19
2023-05-01T16:14:18.117Z,26.26
2023-05-01T16:15:18.150Z,26.07
2023-05-01T16:16:18.127Z,26.16
2023-05-01T16:17:18.087Z,26.15
2023-05-01T16:18:18.095Z,26.04
2023-05-01T16:19:18.077Z,26.04
2023-05-01T16:20:18.069Z,25.97
2023-05-01T16:21:19.856Z,25.99
2023-05-01T16:22:18.069Z,25.88
2023-05-01T16:23:18.100Z,25.93
2023-05-01T16:24:18.075Z,25.78
2023-05-01T16:25:18.106Z,25.84
2023-05-01T16:26:18.095Z,25.82
2023-05-01T16:27:18.080Z,25.76
2023-05-01T16:28:18.123Z,25.71
2023-05-01T16:29:18.058Z,25.74
2023-05-01T16:30:18.096Z,25.74
2023-05-01T16:31:27.262Z,25.69
2023-05-01T16:32:18.229Z,25.64
2023-05-01T16:33:19.020Z,25.52
2023-05-01T16:34:18.071Z,25.69
2023-05-01T16:35:18.066Z,25.56
2023-05-01T16:36:18.070Z,25.56
2023-05-01T16:37:18.058Z,25.51
2023-05-01T16:38:18.071Z,25.51
2023-05-01T16:39:18.082Z,25.48
2023-05-01T16:40:18.053Z,25.42
2023-05-01T16:41:18.044Z,25.47
2023-05-01T16:42:18.051Z,25.37
2023-05-01T16:43:18.045Z,25.38
2023-05-01T16:44:18.057Z,25.32
2023-05-01T16:45:18.065Z,25.38
2023-05-01T16:46:18.115Z,25.37
2023-05-01T16:47:18.052Z,25.33
2023-05-01T16:48:18.109Z,25.32
2023-05-01T16:49:18.050Z,25.38
2023-05-01T16:50:18.050Z,25.34
2023-05-01T16:51:18.052Z,25.33
2023-05-01T16:52:18.130Z,25.26
2023-05-01T16:53:18.049Z,25.24
2023-05-01T16:54:18.049Z,25.24
2023-05-01T16:55:18.039Z,25.29
2023-05-01T16:56:18.024Z,25.15
2023-05-01T16:57:18.048Z,25.22
2023-05-01T16:58:18.038Z,25.17
2023-05-01T16:59:18.032Z,25.23
2023-05-01T17:00:18.057Z,25.17
2023-05-01T17:01:18.038Z,25.17
2023-05-01T17:02:18.066Z,25.17
2023-05-01T17:03:18.045Z,25.15
2023-05-01T17:04:18.088Z,25.17
2023-05-01T17:05:18.051Z,25.11
2023-05-01T17:06:18.152Z,25.15
2023-05-01T17:07:18.035Z,25.05
2023-05-01T17:08:18.040Z,25.15
2023-05-01T17:09:18.044Z,25.17
2023-05-01T17:10:18.022Z,25.09
2023-05-01T17:11:18.013Z,25.09
2023-05-01T17:12:18.038Z,25.09
2023-05-01T17:13:18.000Z,25.04
2023-05-01T17:14:18.024Z,25.01
2023-05-01T17:15:18.056Z,25.05